Time;durP1;ratioP1;P1;durP2;ratioP2;P2;SDS_P1;SDS_P2;PMS_P1;PMS_P2;Temp;Humidity;BMP_temperature;BMP_pressure;BME280_temperature;BME280_humidity;BME280_pressure;Samples;Min_cycle;Max_cycle;Signal;HPM_P1;HPM_P2
2022/10/09 00:01:54;;;;;;;2.20;2.10;;;20.80;95.10;;;;;;5014573;28;20508;-64
2022/10/09 00:04:21;;;;;;;1.93;1.83;;;20.70;95.10;;;;;;5013891;28;20916;-65
2022/10/09 00:06:48;;;;;;;2.10;2.00;;;20.70;95.00;;;;;;5014510;28;20449;-65
2022/10/09 00:09:16;;;;;;;1.90;1.70;;;20.70;95.00;;;;;;5014524;28;20540;-62
2022/10/09 00:11:42;;;;;;;1.70;1.60;;;20.70;94.90;;;;;;5014331;28;20503;-65
2022/10/09 00:14:09;;;;;;;1.77;1.70;;;20.70;95.00;;;;;;5014114;28;20457;-65
2022/10/09 00:16:37;;;;;;;2.10;2.00;;;20.70;95.00;;;;;;5013896;28;20533;-65
2022/10/09 00:19:04;;;;;;;1.80;1.70;;;20.70;94.90;;;;;;5014225;28;20486;-65
2022/10/09 00:21:33;;;;;;;2.07;1.97;;;20.70;95.00;;;;;;5014241;28;20970;-65
2022/10/09 00:24:01;;;;;;;1.87;1.77;;;20.70;95.00;;;;;;5014153;28;20443;-65
2022/10/09 00:26:29;;;;;;;2.20;2.10;;;20.70;95.00;;;;;;5013918;28;20495;-65
2022/10/09 00:28:56;;;;;;;2.20;1.93;;;20.60;94.90;;;;;;5014461;28;20834;-65
2022/10/09 00:31:23;;;;;;;2.20;2.10;;;20.60;95.30;;;;;;5014364;28;20493;-64
2022/10/09 00:33:52;;;;;;;2.33;2.23;;;20.60;94.90;;;;;;5013999;28;20472;-65
2022/10/09 00:36:21;;;;;;;3.37;2.77;;;20.60;95.00;;;;;;5014223;28;20863;-65
2022/10/09 00:38:48;;;;;;;1.70;1.60;;;20.60;95.00;;;;;;5014177;28;20489;-65
2022/10/09 00:41:17;;;;;;;1.60;1.60;;;20.60;95.00;;;;;;5014104;28;20478;-65
2022/10/09 00:43:47;;;;;;;2.03;1.93;;;20.60;95.00;;;;;;5013874;28;20450;-65
2022/10/09 00:46:24;;;;;;;3.50;2.70;;;20.60;95.00;;;;;;5014801;28;20450;-62
2022/10/09 00:49:00;;;;;;;2.00;1.90;;;20.60;95.00;;;;;;5013502;28;20450;-64
2022/10/09 00:51:28;;;;;;;2.03;1.93;;;20.60;95.00;;;;;;5013680;28;20481;-64
2022/10/09 00:53:55;;;;;;;1.80;1.70;;;20.50;94.90;;;;;;5013513;28;20446;-64
2022/10/09 00:56:23;;;;;;;4.10;2.43;;;20.50;94.90;;;;;;5013485;28;20452;-65
2022/10/09 00:58:54;;;;;;;2.60;2.40;;;20.50;94.90;;;;;;5013277;28;20482;-65
2022/10/09 01:01:21;;;;;;;2.40;2.20;;;20.50;95.00;;;;;;5013589;28;20470;-65
2022/10/09 01:03:48;;;;;;;2.30;2.10;;;20.50;94.90;;;;;;5013195;28;20450;-65
2022/10/09 01:06:22;;;;;;;2.50;2.30;;;20.50;94.90;;;;;;5013457;28;20486;-65
2022/10/09 01:08:58;;;;;;;2.10;2.00;;;20.50;95.00;;;;;;5013145;28;20438;-65
2022/10/09 01:11:35;;;;;;;2.47;2.37;;;20.50;95.00;;;;;;5013265;28;20476;-65
2022/10/09 01:14:07;;;;;;;2.27;2.10;;;20.50;94.80;;;;;;5013119;28;20457;-64
2022/10/09 01:16:41;;;;;;;3.10;2.17;;;20.50;94.90;;;;;;5013306;28;20867;-64
2022/10/09 01:19:22;;;;;;;2.50;2.40;;;20.50;95.10;;;;;;5013102;28;20577;-65
2022/10/09 01:22:02;;;;;;;2.33;2.23;;;20.50;95.10;;;;;;5012883;28;20549;-64
2022/10/09 01:24:37;;;;;;;2.73;2.50;;;20.50;95.50;;;;;;5013012;28;20457;-64
2022/10/09 01:27:11;;;;;;;2.20;2.10;;;20.40;95.00;;;;;;5013082;28;20460;-64
2022/10/09 01:29:42;;;;;;;3.13;2.57;;;20.50;95.10;;;;;;5013058;28;20946;-64
2022/10/09 01:32:12;;;;;;;2.50;2.27;;;20.40;95.20;;;;;;5012905;28;20470;-64
2022/10/09 01:34:41;;;;;;;1.90;1.83;;;20.40;95.20;;;;;;5012731;28;20454;-65
2022/10/09 01:37:10;;;;;;;2.37;2.20;;;20.40;95.10;;;;;;5012745;28;20449;-65
2022/10/09 01:39:39;;;;;;;2.20;2.10;;;20.40;95.10;;;;;;5012799;28;21007;-65
2022/10/09 01:42:08;;;;;;;1.90;1.80;;;20.40;95.50;;;;;;5012042;28;21054;-64
2022/10/09 01:44:35;;;;;;;2.27;2.17;;;20.40;95.10;;;;;;5012247;28;20446;-65
2022/10/09 01:47:03;;;;;;;2.40;2.30;;;20.40;95.10;;;;;;5012688;28;20450;-65
2022/10/09 01:49:52;;;;;;;2.20;2.10;;;20.40;95.10;;;;;;5012624;28;20454;-64
2022/10/09 01:52:31;;;;;;;3.00;2.80;;;20.40;94.90;;;;;;5012238;28;20446;-65
2022/10/09 01:55:19;;;;;;;2.50;2.30;;;20.40;94.90;;;;;;5012478;28;20457;-64
2022/10/09 01:57:52;;;;;;;2.23;2.03;;;20.40;94.90;;;;;;5012476;28;20521;-64
2022/10/09 02:00:20;;;;;;;2.60;2.40;;;20.40;94.90;;;;;;5012490;28;20549;-65
2022/10/09 02:02:49;;;;;;;2.20;2.10;;;20.30;94.90;;;;;;5012111;28;21021;-65
2022/10/09 02:05:21;;;;;;;2.20;2.10;;;20.30;94.80;;;;;;5012273;28;20453;-65
2022/10/09 02:07:47;;;;;;;2.83;2.37;;;20.30;94.80;;;;;;5012397;28;20820;-64
2022/10/09 02:10:17;;;;;;;2.57;2.43;;;20.30;94.70;;;;;;5012162;28;20812;-65
2022/10/09 02:12:49;;;;;;;2.13;2.03;;;20.30;94.70;;;;;;5011914;28;20835;-65
2022/10/09 02:15:16;;;;;;;2.30;2.23;;;20.30;94.60;;;;;;5011774;28;20885;-65
2022/10/09 02:17:47;;;;;;;3.10;2.93;;;20.30;94.60;;;;;;5012342;28;20450;-65
2022/10/09 02:20:19;;;;;;;2.97;2.83;;;20.30;94.70;;;;;;5012056;28;20492;-64
2022/10/09 02:22:46;;;;;;;2.43;2.33;;;20.30;94.60;;;;;;5012050;28;20456;-64
2022/10/09 02:25:14;;;;;;;2.27;2.17;;;20.30;94.60;;;;;;5011675;28;20450;-65
2022/10/09 02:27:41;;;;;;;2.20;2.10;;;20.30;94.60;;;;;;5011777;28;20452;-65
2022/10/09 02:30:10;;;;;;;3.57;3.00;;;20.30;94.60;;;;;;5012061;28;20466;-65
2022/10/09 02:32:37;;;;;;;1.83;1.73;;;20.30;94.60;;;;;;5011868;28;20940;-65
2022/10/09 02:35:04;;;;;;;2.30;2.10;;;20.30;94.60;;;;;;5011865;28;20450;-64
2022/10/09 02:37:32;;;;;;;2.30;2.10;;;20.20;94.50;;;;;;5011755;28;20526;-65
2022/10/09 02:39:59;;;;;;;1.97;1.90;;;20.20;94.50;;;;;;5011749;28;20573;-64
2022/10/09 02:42:26;;;;;;;3.80;2.47;;;20.20;94.70;;;;;;5053579;22;20491;-65
2022/10/09 02:44:53;;;;;;;2.37;2.27;;;20.20;94.40;;;;;;5032031;28;20840;-65
2022/10/09 02:47:21;;;;;;;2.67;2.47;;;20.20;94.50;;;;;;5032060;28;20926;-65
2022/10/09 02:49:47;;;;;;;2.33;2.13;;;20.20;94.40;;;;;;5032241;28;20536;-65
2022/10/09 02:52:14;;;;;;;2.67;2.47;;;20.20;94.50;;;;;;5032397;28;20826;-64
2022/10/09 02:54:41;;;;;;;2.33;2.17;;;20.20;94.80;;;;;;5032001;28;20505;-65
2022/10/09 02:57:08;;;;;;;2.73;2.53;;;20.20;94.40;;;;;;5031493;28;20481;-65
2022/10/09 02:59:35;;;;;;;1.90;1.80;;;20.20;94.40;;;;;;5031749;28;20484;-65
2022/10/09 03:02:02;;;;;;;2.50;2.40;;;20.10;94.50;;;;;;5031571;28;20882;-65
2022/10/09 03:04:30;;;;;;;2.70;2.50;;;20.10;94.40;;;;;;5031717;28;20452;-65
2022/10/09 03:06:57;;;;;;;1.90;1.80;;;20.10;94.50;;;;;;5031709;28;20492;-65
2022/10/09 03:09:24;;;;;;;2.40;2.30;;;20.10;94.50;;;;;;5031737;28;20527;-65
2022/10/09 03:11:50;;;;;;;2.90;2.80;;;20.10;94.40;;;;;;5031752;28;20544;-65
2022/10/09 03:14:17;;;;;;;2.17;2.07;;;20.10;94.50;;;;;;5031303;28;20536;-65
2022/10/09 03:16:44;;;;;;;2.60;2.50;;;20.10;94.50;;;;;;5031402;28;20540;-64
2022/10/09 03:19:11;;;;;;;2.00;1.90;;;20.10;94.50;;;;;;5030606;28;20926;-65
2022/10/09 03:21:39;;;;;;;2.13;2.03;;;20.10;94.40;;;;;;5031280;28;20556;-65
2022/10/09 03:24:06;;;;;;;2.33;2.23;;;20.10;94.40;;;;;;5031134;28;20532;-65
2022/10/09 03:26:33;;;;;;;2.33;2.13;;;20.10;94.50;;;;;;5031616;28;20958;-65
2022/10/09 03:29:00;;;;;;;2.60;2.47;;;20.10;94.50;;;;;;5035254;28;20869;-65
2022/10/09 03:31:27;;;;;;;2.00;1.90;;;20.10;94.50;;;;;;5034750;28;20555;-64
2022/10/09 03:33:54;;;;;;;2.20;2.10;;;20.10;94.60;;;;;;5035011;28;20449;-65
2022/10/09 03:36:21;;;;;;;2.40;2.20;;;20.10;94.60;;;;;;5034982;28;20973;-65
2022/10/09 03:38:49;;;;;;;1.97;1.87;;;20.10;94.60;;;;;;5034868;28;20484;-65
2022/10/09 03:41:16;;;;;;;2.20;2.10;;;20.10;94.60;;;;;;5034711;28;20483;-65
2022/10/09 03:43:43;;;;;;;2.07;1.97;;;20.00;94.50;;;;;;5034403;28;20880;-65
2022/10/09 03:46:10;;;;;;;2.20;2.10;;;20.00;94.60;;;;;;5034743;28;20488;-65
2022/10/09 03:48:37;;;;;;;2.40;2.20;;;20.00;94.60;;;;;;5034792;28;20524;-65
2022/10/09 03:51:04;;;;;;;1.80;1.70;;;20.00;94.60;;;;;;5034463;28;20469;-65
2022/10/09 03:53:31;;;;;;;1.87;1.77;;;20.00;94.60;;;;;;5034301;28;20455;-65
2022/10/09 03:55:59;;;;;;;2.70;2.50;;;20.00;94.50;;;;;;5034613;28;20537;-65
2022/10/09 03:58:26;;;;;;;2.57;2.47;;;20.00;94.60;;;;;;5034442;28;20566;-65
2022/10/09 04:00:53;;;;;;;3.33;3.07;;;20.00;94.60;;;;;;5034085;28;20483;-65
2022/10/09 04:03:21;;;;;;;1.80;1.73;;;20.00;94.60;;;;;;5034257;28;20441;-66
2022/10/09 04:05:48;;;;;;;2.30;2.20;;;20.00;94.60;;;;;;5034292;28;20942;-65
2022/10/09 04:08:15;;;;;;;2.10;2.00;;;19.90;94.60;;;;;;5034252;28;20449;-65
2022/10/09 04:10:42;;;;;;;2.90;2.70;;;20.00;94.60;;;;;;5033963;28;20467;-65
2022/10/09 04:13:10;;;;;;;2.13;2.03;;;19.90;94.60;;;;;;5034020;28;20532;-65
2022/10/09 04:15:37;;;;;;;2.33;2.23;;;19.90;94.60;;;;;;5034172;28;20453;-65
2022/10/09 04:18:05;;;;;;;1.87;1.77;;;19.90;94.60;;;;;;5034200;28;20954;-65
2022/10/09 04:20:32;;;;;;;2.13;2.03;;;19.90;94.60;;;;;;5034012;28;21035;-65
2022/10/09 04:22:59;;;;;;;2.60;1.93;;;19.90;94.50;;;;;;5033670;28;20446;-65
2022/10/09 04:25:25;;;;;;;2.00;1.90;;;19.90;94.40;;;;;;5034108;28;20709;-65
2022/10/09 04:27:52;;;;;;;1.93;1.83;;;19.90;94.30;;;;;;5033899;28;20480;-65
2022/10/09 04:30:20;;;;;;;1.90;1.80;;;19.90;94.30;;;;;;5033893;28;20524;-65
2022/10/09 04:32:47;;;;;;;2.17;2.00;;;19.90;94.30;;;;;;5033883;28;20887;-65
2022/10/09 04:35:15;;;;;;;2.00;1.90;;;19.90;94.30;;;;;;5033251;28;20445;-65
2022/10/09 04:37:42;;;;;;;1.53;1.43;;;19.90;94.30;;;;;;5033288;28;20496;-65
2022/10/09 04:40:09;;;;;;;2.03;1.93;;;19.90;94.30;;;;;;5033717;28;20487;-65
2022/10/09 04:42:36;;;;;;;2.20;2.10;;;19.90;94.30;;;;;;5033334;28;20481;-65
2022/10/09 04:45:03;;;;;;;1.87;1.77;;;19.90;94.30;;;;;;5033394;28;20969;-65
2022/10/09 04:47:31;;;;;;;2.50;2.07;;;19.90;94.10;;;;;;5033660;28;20457;-66
2022/10/09 04:49:58;;;;;;;2.03;1.93;;;19.80;94.00;;;;;;5033699;28;21034;-65
2022/10/09 04:52:25;;;;;;;1.63;1.60;;;19.90;94.10;;;;;;5033334;28;20465;-65
2022/10/09 04:54:52;;;;;;;1.77;1.67;;;19.80;94.10;;;;;;5033559;28;20878;-65
2022/10/09 04:57:19;;;;;;;2.03;1.83;;;19.80;94.00;;;;;;5033248;28;20442;-65
2022/10/09 04:59:46;;;;;;;2.10;2.00;;;19.80;94.00;;;;;;5033329;28;20485;-65
2022/10/09 05:02:12;;;;;;;2.10;2.00;;;19.80;93.90;;;;;;5033301;28;20496;-65
2022/10/09 05:04:41;;;;;;;2.00;1.90;;;19.80;94.00;;;;;;5033117;28;20875;-65
2022/10/09 05:07:07;;;;;;;1.87;1.77;;;19.80;94.00;;;;;;5032749;28;21053;-66
2022/10/09 05:09:34;;;;;;;2.33;2.13;;;19.80;94.00;;;;;;5033179;28;20528;-65
2022/10/09 05:12:01;;;;;;;1.53;1.53;;;19.80;93.90;;;;;;5033112;28;20520;-64
2022/10/09 05:14:28;;;;;;;2.43;2.23;;;19.80;93.90;;;;;;5032850;28;20536;-65
2022/10/09 05:16:56;;;;;;;1.70;1.60;;;19.80;93.90;;;;;;5032862;28;20539;-65
2022/10/09 05:19:22;;;;;;;1.90;1.80;;;19.80;94.00;;;;;;5032950;28;20481;-65
2022/10/09 05:21:51;;;;;;;2.20;2.10;;;19.80;94.00;;;;;;5032854;28;20854;-65
2022/10/09 05:24:17;;;;;;;2.17;2.07;;;19.70;93.90;;;;;;5032838;28;20445;-65
2022/10/09 05:26:44;;;;;;;1.90;1.80;;;19.80;94.00;;;;;;5032802;28;20970;-65
2022/10/09 05:29:11;;;;;;;1.90;1.80;;;19.80;94.00;;;;;;5032397;28;20477;-65
2022/10/09 05:31:38;;;;;;;2.30;2.10;;;19.80;94.10;;;;;;5032715;28;20469;-65
2022/10/09 05:34:05;;;;;;;2.10;1.97;;;19.80;94.00;;;;;;5032523;28;20449;-65
2022/10/09 05:36:32;;;;;;;1.50;1.50;;;19.70;93.90;;;;;;5032624;28;20446;-65
2022/10/09 05:39:00;;;;;;;2.50;2.30;;;19.80;94.00;;;;;;5032481;28;20535;-65
2022/10/09 05:41:28;;;;;;;2.10;2.00;;;19.80;94.00;;;;;;5031775;28;20564;-65
2022/10/09 05:43:55;;;;;;;2.00;1.90;;;19.70;93.90;;;;;;5032298;28;20468;-65
2022/10/09 05:46:24;;;;;;;1.43;1.43;;;19.70;93.90;;;;;;5032471;28;20949;-65
2022/10/09 05:48:53;;;;;;;1.80;1.70;;;19.70;93.90;;;;;;5032190;28;20473;-65
2022/10/09 05:51:22;;;;;;;1.93;1.83;;;19.70;93.80;;;;;;5032022;28;20462;-65
2022/10/09 05:53:49;;;;;;;1.97;1.87;;;19.70;93.90;;;;;;5031655;28;20452;-65
2022/10/09 05:56:19;;;;;;;1.73;1.67;;;19.70;93.80;;;;;;5032371;28;20445;-65
2022/10/09 05:58:51;;;;;;;2.37;2.20;;;19.70;93.80;;;;;;5032291;28;20536;-65
2022/10/09 06:01:17;;;;;;;2.00;1.90;;;19.70;93.90;;;;;;5032150;28;20489;-65
2022/10/09 06:03:48;;;;;;;1.77;1.67;;;19.70;93.90;;;;;;5031740;28;20537;-66
2022/10/09 06:06:15;;;;;;;2.43;2.33;;;19.70;93.90;;;;;;5031644;28;20445;-66
2022/10/09 06:08:42;;;;;;;1.90;1.80;;;19.70;93.90;;;;;;5032158;28;20532;-65
2022/10/09 06:11:14;;;;;;;2.00;1.90;;;19.70;93.90;;;;;;5032013;28;20639;-65
2022/10/09 06:13:43;;;;;;;2.20;2.00;;;19.70;93.90;;;;;;5031772;28;20445;-65
2022/10/09 06:16:12;;;;;;;1.47;1.37;;;19.70;93.90;;;;;;5031686;28;20446;-63
2022/10/09 06:18:39;;;;;;;2.03;1.93;;;19.70;94.30;;;;;;5031920;28;20441;-64
2022/10/09 06:21:06;;;;;;;1.57;1.50;;;19.70;94.80;;;;;;5031918;28;20491;-65
2022/10/09 06:23:34;;;;;;;2.17;1.93;;;19.70;94.90;;;;;;5031644;28;20445;-64
2022/10/09 06:26:03;;;;;;;2.87;2.47;;;19.60;94.80;;;;;;5032082;28;20882;-63
2022/10/09 06:28:32;;;;;;;3.17;2.97;;;19.60;95.00;;;;;;5031532;28;20444;-63
2022/10/09 06:31:05;;;;;;;9.73;5.30;;;19.60;95.90;;;;;;5031618;28;20523;-64
2022/10/09 06:33:32;;;;;;;9.20;5.00;;;19.60;96.50;;;;;;5031718;28;20520;-64
2022/10/09 06:36:00;;;;;;;7.87;4.57;;;19.60;96.20;;;;;;5032473;28;20445;-66
2022/10/09 06:38:27;;;;;;;4.43;4.03;;;19.60;96.40;;;;;;5033989;28;20845;-64
2022/10/09 06:40:54;;;;;;;8.30;5.43;;;19.70;97.00;;;;;;5034721;28;20489;-64
2022/10/09 06:43:21;;;;;;;6.37;4.40;;;19.70;96.60;;;;;;5033721;28;20457;-63
2022/10/09 06:45:48;;;;;;;6.10;5.50;;;19.60;97.10;;;;;;5031987;28;21052;-62
2022/10/09 06:48:16;;;;;;;10.80;4.67;;;19.70;97.20;;;;;;5032512;28;20497;-62
2022/10/09 06:50:43;;;;;;;6.40;5.80;;;19.70;97.00;;;;;;5034651;28;20465;-61
2022/10/09 06:53:10;;;;;;;7.10;5.57;;;19.70;97.50;;;;;;5032095;28;20445;-67
2022/10/09 06:55:37;;;;;;;5.30;4.90;;;19.70;97.20;;;;;;5032121;28;20205;-61
2022/10/09 06:58:03;;;;;;;5.50;4.23;;;19.70;97.10;;;;;;5032330;28;20548;-62
2022/10/09 07:00:30;;;;;;;4.80;4.10;;;19.70;97.70;;;;;;5032024;28;20485;-62
2022/10/09 07:02:57;;;;;;;6.47;3.87;;;19.70;98.10;;;;;;5036045;28;20480;-63
2022/10/09 07:05:25;;;;;;;7.63;4.77;;;19.70;97.80;;;;;;5036707;28;20966;-63
2022/10/09 07:07:52;;;;;;;4.57;4.17;;;19.80;97.90;;;;;;5036432;28;20532;-62
2022/10/09 07:10:19;;;;;;;6.17;3.97;;;19.80;97.80;;;;;;5036707;28;20953;-62
2022/10/09 07:12:46;;;;;;;6.40;4.10;;;19.70;97.80;;;;;;5036946;28;20556;-62
2022/10/09 07:15:13;;;;;;;3.63;3.33;;;19.80;97.50;;;;;;5037336;28;20872;-61
2022/10/09 07:17:39;;;;;;;8.90;5.27;;;19.80;97.50;;;;;;5038208;28;20468;-61
2022/10/09 07:20:09;;;;;;;3.93;3.50;;;19.80;97.50;;;;;;5037929;28;20481;-62
2022/10/09 07:22:38;;;;;;;3.20;2.90;;;19.80;97.40;;;;;;5035965;28;20556;-61
2022/10/09 07:25:06;;;;;;;4.60;3.10;;;19.80;97.60;;;;;;5035585;28;20487;-61
2022/10/09 07:27:34;;;;;;;3.33;2.80;;;19.80;97.40;;;;;;5035376;28;20481;-61
2022/10/09 07:30:01;;;;;;;4.87;3.33;;;19.70;97.40;;;;;;5035285;28;20923;-60
2022/10/09 07:32:28;;;;;;;5.15;4.10;;;19.80;97.50;;;;;;5037762;28;20535;-63
2022/10/09 07:34:55;;;;;;;4.03;3.10;;;19.80;97.20;;;;;;5039050;28;20289;-64
2022/10/09 07:37:22;;;;;;;3.30;3.00;;;19.80;97.20;;;;;;5039866;28;20535;-62
2022/10/09 07:39:53;;;;;;;3.63;2.63;;;19.80;97.20;;;;;;5038492;28;20951;-63
2022/10/09 07:42:20;;;;;;;5.33;3.20;;;19.80;97.10;;;;;;5037651;28;20505;-62
2022/10/09 07:44:47;;;;;;;4.27;3.87;;;19.80;97.50;;;;;;5037681;28;20552;-62
2022/10/09 07:47:14;;;;;;;2.77;2.53;;;19.80;97.30;;;;;;5037387;28;20548;-63
2022/10/09 07:49:40;;;;;;;6.10;3.47;;;19.80;97.30;;;;;;5038823;28;20524;-62
2022/10/09 07:52:07;;;;;;;4.70;3.30;;;19.80;97.60;;;;;;5039401;28;20548;-62
2022/10/09 07:54:34;;;;;;;3.00;2.80;;;19.80;97.40;;;;;;5037774;28;20537;-63
2022/10/09 07:57:02;;;;;;;3.20;2.60;;;19.80;97.50;;;;;;5040551;28;20843;-64
2022/10/09 07:59:29;;;;;;;3.30;3.00;;;19.80;97.00;;;;;;5039296;28;20203;-61
2022/10/09 08:01:56;;;;;;;2.53;2.40;;;19.90;97.10;;;;;;5036315;28;21002;-62
2022/10/09 08:04:23;;;;;;;3.20;2.87;;;20.00;96.80;;;;;;5037357;28;20531;-65
2022/10/09 08:06:50;;;;;;;2.90;2.50;;;20.00;96.50;;;;;;5034701;28;20481;-65
2022/10/09 08:09:18;;;;;;;2.60;2.40;;;20.00;96.80;;;;;;5035900;28;20525;-65
2022/10/09 08:11:44;;;;;;;4.93;3.53;;;20.00;96.80;;;;;;5035926;28;20547;-65
2022/10/09 08:14:14;;;;;;;2.93;2.53;;;20.00;96.80;;;;;;5034379;28;20473;-65
2022/10/09 08:16:41;;;;;;;2.63;2.33;;;20.00;96.70;;;;;;5035293;28;20548;-64
2022/10/09 08:19:09;;;;;;;3.00;2.37;;;20.10;96.90;;;;;;5035323;28;20472;-65
2022/10/09 08:21:36;;;;;;;3.10;1.83;;;20.10;96.90;;;;;;5035462;28;20487;-64
2022/10/09 08:24:03;;;;;;;1.93;1.83;;;20.10;96.70;;;;;;5039155;28;20532;-61
2022/10/09 08:26:30;;;;;;;3.53;2.20;;;20.10;96.60;;;;;;5043192;28;20540;-62
2022/10/09 08:28:59;;;;;;;2.53;2.33;;;20.10;96.30;;;;;;5041823;28;20871;-63
2022/10/09 08:31:28;;;;;;;2.57;2.47;;;20.10;96.10;;;;;;5040601;28;20551;-60
2022/10/09 08:33:57;;;;;;;2.20;2.10;;;20.10;95.90;;;;;;5039482;28;20939;-60
2022/10/09 08:36:24;;;;;;;1.87;1.77;;;20.10;95.70;;;;;;5035699;28;20452;-61
2022/10/09 08:38:52;;;;;;;2.50;1.80;;;20.10;95.80;;;;;;5034620;28;20484;-61
2022/10/09 08:41:48;;;;;;;2.30;2.10;;;20.10;95.90;;;;;;5034274;28;20568;-65
2022/10/09 08:44:18;;;;;;;3.50;3.30;;;20.10;95.40;;;;;;5030209;28;20564;-66
2022/10/09 08:46:55;;;;;;;2.57;2.30;;;20.00;95.20;;;;;;5034346;28;20814;-68
2022/10/09 08:49:27;;;;;;;2.13;1.87;;;20.00;95.30;;;;;;5033783;28;20453;-62
2022/10/09 08:51:55;;;;;;;1.93;1.83;;;20.00;95.20;;;;;;5033626;28;20470;-60
2022/10/09 08:54:31;;;;;;;2.30;2.10;;;19.90;95.60;;;;;;5033549;28;20488;-67
2022/10/09 08:57:06;;;;;;;1.93;1.83;;;19.90;95.90;;;;;;5033791;28;20436;-65
2022/10/09 08:59:34;;;;;;;1.87;1.77;;;19.90;96.20;;;;;;5033347;28;20449;-66
2022/10/09 09:02:17;;;;;;;1.90;1.80;;;19.90;96.20;;;;;;5033273;28;20488;-66
2022/10/09 09:04:55;;;;;;;1.90;1.80;;;19.90;96.40;;;;;;5033416;28;20857;-66
2022/10/09 09:07:30;;;;;;;1.50;1.40;;;19.90;96.50;;;;;;5033713;28;20447;-65
2022/10/09 09:10:01;;;;;;;1.90;1.70;;;20.00;96.70;;;;;;5033211;28;20451;-65
2022/10/09 09:12:37;;;;;;;1.87;1.77;;;20.00;96.80;;;;;;5032493;28;20552;-65
2022/10/09 09:15:28;;;;;;;2.07;1.97;;;20.00;96.70;;;;;;5033533;28;20449;-65
2022/10/09 09:18:03;;;;;;;1.93;1.87;;;20.00;96.70;;;;;;5033551;28;20441;-66
2022/10/09 09:20:38;;;;;;;2.20;2.00;;;20.00;96.80;;;;;;5033262;28;20487;-66
2022/10/09 09:23:10;;;;;;;2.23;2.03;;;20.00;96.80;;;;;;5032669;28;20548;-64
2022/10/09 09:25:40;;;;;;;2.10;1.80;;;20.00;96.80;;;;;;5032822;28;20456;-66
2022/10/09 09:28:15;;;;;;;1.97;1.50;;;20.00;97.00;;;;;;5033181;28;20536;-64
2022/10/09 09:30:46;;;;;;;1.80;1.70;;;20.00;97.30;;;;;;5032894;28;20467;-65
2022/10/09 09:33:22;;;;;;;1.53;1.43;;;20.00;97.40;;;;;;5032578;28;20894;-65
2022/10/09 09:35:56;;;;;;;1.93;1.83;;;20.00;97.00;;;;;;5033029;28;20448;-65
2022/10/09 09:38:23;;;;;;;1.93;1.83;;;20.00;97.10;;;;;;5032758;28;20528;-62
2022/10/09 09:40:50;;;;;;;1.57;1.47;;;20.10;96.50;;;;;;5032320;28;21019;-63
2022/10/09 09:43:19;;;;;;;2.27;1.50;;;20.10;96.40;;;;;;5032530;28;20453;-68
2022/10/09 09:45:47;;;;;;;2.17;1.97;;;20.10;96.80;;;;;;5032390;28;20546;-67
2022/10/09 09:48:20;;;;;;;1.20;1.20;;;20.10;96.90;;;;;;5032557;28;20445;-66
2022/10/09 09:50:52;;;;;;;1.43;1.33;;;20.30;97.10;;;;;;5032749;28;20540;-65
2022/10/09 09:53:26;;;;;;;1.50;1.40;;;20.50;96.90;;;;;;5032802;28;20450;-65
2022/10/09 09:55:53;;;;;;;1.83;1.43;;;20.60;96.50;;;;;;5032239;28;20545;-65
2022/10/09 09:58:22;;;;;;;1.50;1.50;;;20.60;96.00;;;;;;5033136;28;20533;-66
2022/10/09 10:00:55;;;;;;;1.50;1.40;;;20.70;95.70;;;;;;5032795;28;20568;-64
2022/10/09 10:03:25;;;;;;;2.47;2.00;;;20.70;95.40;;;;;;5032749;28;20771;-66
2022/10/09 10:05:52;;;;;;;1.57;1.47;;;20.80;95.30;;;;;;5032428;28;21033;-66
2022/10/09 10:08:24;;;;;;;1.77;1.67;;;20.80;95.30;;;;;;5033198;28;20755;-67
2022/10/09 10:10:53;;;;;;;1.70;1.60;;;20.80;95.20;;;;;;5032683;28;20461;-67
2022/10/09 10:13:27;;;;;;;2.40;2.00;;;20.80;95.10;;;;;;5032017;28;20453;-66
2022/10/09 10:15:55;;;;;;;1.70;1.60;;;20.90;95.10;;;;;;5031475;28;20528;-67
2022/10/09 10:18:27;;;;;;;1.37;1.27;;;20.90;95.30;;;;;;5032779;28;20455;-67
2022/10/09 10:20:55;;;;;;;1.10;1.10;;;20.90;95.00;;;;;;5032566;28;20843;-66
2022/10/09 10:23:34;;;;;;;1.27;1.17;;;20.90;95.10;;;;;;5031982;28;20452;-66
2022/10/09 10:26:04;;;;;;;1.23;1.23;;;20.90;95.30;;;;;;5032390;28;20483;-63
2022/10/09 10:28:37;;;;;;;1.27;1.27;;;21.00;96.20;;;;;;5031937;28;20481;-63
2022/10/09 10:31:08;;;;;;;1.80;1.70;;;21.00;96.80;;;;;;5031962;28;20954;-63
2022/10/09 10:33:37;;;;;;;1.20;1.20;;;21.00;96.60;;;;;;5031636;28;20456;-62
2022/10/09 10:36:05;;;;;;;1.60;1.50;;;21.00;96.40;;;;;;5031732;28;20447;-64
2022/10/09 10:38:36;;;;;;;1.33;1.33;;;20.90;94.80;;;;;;5032131;28;20443;-63
2022/10/09 10:41:16;;;;;;;1.40;1.40;;;20.80;94.70;;;;;;5031683;28;20940;-62
2022/10/09 10:43:44;;;;;;;1.40;1.30;;;20.80;95.70;;;;;;5031748;28;20449;-63
2022/10/09 10:46:22;;;;;;;1.63;1.53;;;20.80;96.00;;;;;;5031598;28;20545;-64
2022/10/09 10:48:51;;;;;;;1.80;1.47;;;20.80;96.40;;;;;;5032034;28;20460;-61
2022/10/09 10:51:43;;;;;;;1.73;1.63;;;20.80;96.50;;;;;;5031760;28;20473;-64
2022/10/09 10:54:28;;;;;;;1.00;1.00;;;20.80;96.00;;;;;;5031515;28;20442;-64
2022/10/09 10:57:04;;;;;;;1.37;1.30;;;20.90;96.10;;;;;;5031256;28;20544;-64
2022/10/09 10:59:39;;;;;;;1.10;1.10;;;20.90;95.80;;;;;;5031670;28;20455;-63
2022/10/09 11:02:38;;;;;;;1.20;1.20;;;20.80;95.80;;;;;;5031399;28;20794;-63
2022/10/09 11:05:35;;;;;;;1.53;1.43;;;20.90;96.00;;;;;;5031570;28;20983;-63
2022/10/09 11:08:17;;;;;;;1.93;1.60;;;20.90;95.90;;;;;;5028085;28;20488;-64
2022/10/09 11:10:56;;;;;;;3.73;1.20;;;20.90;95.70;;;;;;5031389;28;20470;-63
2022/10/09 11:13:29;;;;;;;0.90;0.90;;;20.90;95.70;;;;;;5031348;28;20453;-62
2022/10/09 11:16:06;;;;;;;2.80;1.43;;;20.90;95.90;;;;;;5031818;28;20811;-65
2022/10/09 11:18:53;;;;;;;1.57;1.47;;;20.90;95.20;;;;;;5031679;28;20444;-65
2022/10/09 11:21:45;;;;;;;1.67;1.57;;;20.80;94.60;;;;;;5031064;28;20986;-67
2022/10/09 11:24:50;;;;;;;1.33;1.17;;;20.70;94.60;;;;;;5031274;28;20438;-67
2022/10/09 11:27:20;;;;;;;1.67;1.57;;;20.70;95.10;;;;;;4989690;28;20453;-66
2022/10/09 11:29:51;;;;;;;1.33;1.23;;;20.60;94.80;;;;;;5024963;28;20539;-64
2022/10/09 11:32:22;;;;;;;1.37;1.30;;;20.60;95.70;;;;;;5031157;28;20914;-64
2022/10/09 11:34:55;;;;;;;2.37;2.27;;;20.70;96.60;;;;;;5031350;28;20528;-64
2022/10/09 11:37:28;;;;;;;2.90;2.70;;;20.70;96.30;;;;;;5031245;28;20532;-65
2022/10/09 11:39:55;;;;;;;4.17;3.83;;;20.70;96.30;;;;;;5031227;28;20516;-65
2022/10/09 11:42:24;;;;;;;6.00;5.50;;;20.80;96.30;;;;;;5030771;28;20575;-65
2022/10/09 11:45:05;;;;;;;6.20;5.70;;;20.80;96.20;;;;;;5031078;28;20455;-65
2022/10/09 11:47:39;;;;;;;11.73;10.63;;;20.80;96.20;;;;;;5031252;28;20480;-66
2022/10/09 11:50:32;;;;;;;12.27;10.97;;;20.70;95.50;;;;;;5036273;28;20448;-62
2022/10/09 11:53:05;;;;;;;11.50;10.40;;;20.70;97.10;;;;;;5036501;28;20441;-62
2022/10/09 11:55:33;;;;;;;13.63;12.23;;;20.70;97.30;;;;;;5034843;28;20445;-62
2022/10/09 11:58:13;;;;;;;17.00;15.33;;;20.70;97.70;;;;;;5034946;28;20445;-61
2022/10/09 12:00:41;;;;;;;15.53;14.07;;;20.70;98.00;;;;;;5034033;28;20473;-62
2022/10/09 12:03:25;;;;;;;17.07;15.23;;;20.70;98.30;;;;;;5034668;28;20491;-63
2022/10/09 12:05:52;;;;;;;15.83;14.33;;;20.70;98.10;;;;;;5035153;28;20477;-63
2022/10/09 12:08:27;;;;;;;15.07;13.57;;;20.70;98.40;;;;;;5034483;28;20445;-63
2022/10/09 12:10:57;;;;;;;16.10;14.40;;;20.70;98.00;;;;;;5034363;28;20487;-62
2022/10/09 12:13:31;;;;;;;16.40;14.70;;;20.70;98.00;;;;;;5034744;28;20555;-62
2022/10/09 12:15:59;;;;;;;16.80;15.13;;;20.80;98.20;;;;;;5035764;28;20452;-61
2022/10/09 12:18:30;;;;;;;16.87;15.17;;;20.70;99.20;;;;;;5034793;28;20445;-63
2022/10/09 12:20:59;;;;;;;22.03;17.40;;;20.70;99.40;;;;;;5034517;28;20469;-63
2022/10/09 12:23:32;;;;;;;19.67;17.67;;;20.70;99.50;;;;;;5034599;28;20870;-63
2022/10/09 12:26:00;;;;;;;20.60;18.60;;;20.70;99.80;;;;;;5034955;28;20541;-61
2022/10/09 12:28:33;;;;;;;18.83;17.03;;;20.70;99.90;;;;;;5034417;28;20441;-63
2022/10/09 12:31:03;;;;;;;16.60;15.00;;;20.70;99.80;;;;;;5033660;28;20525;-60
2022/10/09 12:33:34;;;;;;;17.73;15.97;;;20.80;99.90;;;;;;5033906;28;20453;-65
2022/10/09 12:36:06;;;;;;;18.07;16.40;;;20.80;99.60;;;;;;5033901;28;20440;-63
2022/10/09 12:38:34;;;;;;;16.60;14.93;;;20.80;99.10;;;;;;5034192;28;20451;-64
2022/10/09 12:41:04;;;;;;;17.10;15.50;;;20.80;99.10;;;;;;5033867;28;20516;-63
2022/10/09 12:43:32;;;;;;;16.70;15.10;;;20.80;99.30;;;;;;5033333;28;20477;-59
2022/10/09 12:46:00;;;;;;;16.60;14.93;;;20.90;99.90;;;;;;5033959;28;20814;-57
2022/10/09 12:48:28;;;;;;;16.87;15.27;;;20.90;99.90;;;;;;5033834;28;20441;-60
2022/10/09 12:50:56;;;;;;;16.20;14.73;;;20.90;99.90;;;;;;5033566;28;20552;-61
2022/10/09 12:53:24;;;;;;;16.47;14.77;;;20.90;99.90;;;;;;5033476;28;20441;-60
2022/10/09 12:55:57;;;;;;;15.33;14.03;;;20.90;99.80;;;;;;5033450;28;20544;-62
2022/10/09 12:58:27;;;;;;;14.57;13.27;;;20.90;99.60;;;;;;5033304;28;20453;-61
2022/10/09 13:00:57;;;;;;;15.00;13.40;;;20.90;99.60;;;;;;5033303;28;20480;-62